Ohio — C6XL7 — position and weather

sailwx.info

Track history (hours):
 
Tides and Currents Weather Stations Pressure Air Temp Water Temp Dewpoint Dewpoint Depression Visibility Wind Speed Wind Dir Waves Ship Positions

Ohio

Last reported at 2017-Sep-24 14:00 UTC. Time now 2017-Sep-24 14:24 UTC.
Position N 36°06' W 005°22'.

Length 244 m; draft 8.7 m.

Type: Tanker. MMSI: 311013400.

Date/timePositionNaut miles runAvg speedWind from/ knotsBaromVisibWave heightAir tempDewpointWater temp
2017-Sep-24 14:00N 36°06' W 005°22'0 0.2
2017-Sep-24 13:22N 36°06' W 005°22'0 0.0
2017-Sep-24 12:46N 36°06' W 005°22'0 0.2
2017-Sep-24 12:28N 36°06' W 005°22'0 0.3
2017-Sep-24 11:58N 36°06' W 005°22'0 0.0
2017-Sep-24 11:19N 36°06' W 005°22'0 0.0
2017-Sep-24 10:43N 36°06' W 005°22'0 0.1
2017-Sep-24 10:28N 36°06' W 005°22'0 0.1
2017-Sep-24 09:40N 36°06' W 005°22'0 0.6
2017-Sep-24 09:28N 36°06' W 005°22'1 0.2
2017-Sep-24 05:58N 36°05' W 005°22'0 0.9
2017-Sep-24 05:31N 36°05' W 005°22'1 2.2
2017-Sep-24 05:01N 36°04' W 005°21'4 7.1
2017-Sep-24 04:31N 36°05' W 005°17'3 5.7
2017-Sep-24 04:01N 36°06' W 005°13'4 7.5
2017-Sep-24 03:31N 36°04' W 005°18'5 9.2
2017-Sep-24 03:01N 36°06' W 005°23'3 6.4
2017-Sep-24 02:30N 36°09' W 005°23'0 0.3
2017-Sep-24 01:55N 36°09' W 005°23'0 0.4
2017-Sep-24 01:28N 36°09' W 005°23'0 0.1
2017-Sep-24 00:58N 36°09' W 005°23'0 0.5
2017-Sep-24 00:25N 36°09' W 005°23'  
2017-Sep-18 01:04N 36°12' W 007°48'412.2
2017-Sep-18 00:44N 36°13' W 007°53'312.2
2017-Sep-18 00:29N 36°14' W 007°56'612.3
2017-Sep-17 23:58N 36°15' W 008°04'812.5
2017-Sep-17 23:20N 36°17' W 008°14'512.3
2017-Sep-17 22:58N 36°18' W 008°19'1112.3
2017-Sep-17 22:05N 36°20' W 008°32'112.5
2017-Sep-17 22:00N 36°20' W 008°33'2712.7
2017-Sep-17 19:52N 36°27' W 009°06'513.2
2017-Sep-17 19:30N 36°28' W 009°12'712.7
2017-Sep-17 19:00N 36°30' W 009°20'613.1
2017-Sep-17 18:30N 36°34' W 009°25'2912.7
2017-Sep-17 16:15N 36°59' W 009°42'2613.3
2017-Sep-17 14:17N 37°25' W 009°50'413.7
2017-Sep-17 14:00N 37°29' W 009°51'1313.1
2017-Sep-17 13:02N 37°41' W 009°55'012.5
2017-Sep-17 13:00N 37°41' W 009°55'712.4
2017-Sep-17 12:26N 37°48' W 009°57'612.4
2017-Sep-17 11:59N 37°54' W 009°58'612.7
2017-Sep-17 11:31N 37°60' W 009°60'712.8
2017-Sep-17 10:59N 38°06' W 010°02'612.9
2017-Sep-17 10:31N 38°12' W 010°03'612.7
2017-Sep-17 10:00N 38°18' W 010°05'613.0
2017-Sep-17 09:31N 38°25' W 010°07'713.3
2017-Sep-17 09:00N 38°31' W 010°09'713.5
2017-Sep-17 08:30N 38°38' W 010°11'714.0
2017-Sep-17 08:00N 38°45' W 010°12'714.7
2017-Sep-17 07:30N 38°52' W 010°12'714.6
2017-Sep-17 07:00N 38°59' W 010°12'714.3
2017-Sep-17 06:30N 39°06' W 010°12'713.2
2017-Sep-17 06:00N 39°13' W 010°12'713.2
2017-Sep-17 05:30N 39°20' W 010°12'  
2017-Sep-14 18:42N 49°37' W 003°57'211.9
2017-Sep-14 18:30N 49°38' W 003°54'611.9
2017-Sep-14 18:00N 49°41' W 003°46'611.9
2017-Sep-14 17:30N 49°44' W 003°38'611.7
2017-Sep-14 17:00N 49°47' W 003°30'611.2
2017-Sep-14 16:30N 49°50' W 003°23'511.0
2017-Sep-14 16:00N 49°52' W 003°15'610.6
2017-Sep-14 15:26N 49°55' W 003°07'410.2
2017-Sep-14 15:00N 49°58' W 003°01'5 9.7
2017-Sep-14 14:30N 49°59' W 002°54'5 9.5
2017-Sep-14 14:00N 50°00' W 002°47'  
Track history (hours):
 
Tides and Currents Weather Stations Pressure Air Temp Water Temp Dewpoint Dewpoint Depression Visibility Wind Speed Wind Dir Waves Ship Positions

Ohio

Last reported at 2017-Sep-24 14:00 UTC. Time now 2017-Sep-24 14:24 UTC.
Position N 36°06' W 005°22'.

Length 244 m; draft 8.7 m.

Type: Tanker. MMSI: 311013400.

Date/timePositionNaut miles runAvg speedWind from/ knotsBaromVisibWave heightAir tempDewpointWater temp
2017-Sep-24 14:00N 36°06' W 005°22'0 0.2
2017-Sep-24 13:22N 36°06' W 005°22'0 0.0
2017-Sep-24 12:46N 36°06' W 005°22'0 0.2
2017-Sep-24 12:28N 36°06' W 005°22'0 0.3
2017-Sep-24 11:58N 36°06' W 005°22'0 0.0
2017-Sep-24 11:19N 36°06' W 005°22'0 0.0
2017-Sep-24 10:43N 36°06' W 005°22'0 0.1
2017-Sep-24 10:28N 36°06' W 005°22'0 0.1
2017-Sep-24 09:40N 36°06' W 005°22'0 0.6
2017-Sep-24 09:28N 36°06' W 005°22'1 0.2
2017-Sep-24 05:58N 36°05' W 005°22'0 0.9
2017-Sep-24 05:31N 36°05' W 005°22'1 2.2
2017-Sep-24 05:01N 36°04' W 005°21'4 7.1
2017-Sep-24 04:31N 36°05' W 005°17'3 5.7
2017-Sep-24 04:01N 36°06' W 005°13'4 7.5
2017-Sep-24 03:31N 36°04' W 005°18'5 9.2
2017-Sep-24 03:01N 36°06' W 005°23'3 6.4
2017-Sep-24 02:30N 36°09' W 005°23'0 0.3
2017-Sep-24 01:55N 36°09' W 005°23'0 0.4
2017-Sep-24 01:28N 36°09' W 005°23'0 0.1
2017-Sep-24 00:58N 36°09' W 005°23'0 0.5
2017-Sep-24 00:25N 36°09' W 005°23'  
2017-Sep-18 01:04N 36°12' W 007°48'412.2
2017-Sep-18 00:44N 36°13' W 007°53'312.2
2017-Sep-18 00:29N 36°14' W 007°56'612.3
2017-Sep-17 23:58N 36°15' W 008°04'812.5
2017-Sep-17 23:20N 36°17' W 008°14'512.3
2017-Sep-17 22:58N 36°18' W 008°19'1112.3
2017-Sep-17 22:05N 36°20' W 008°32'112.5
2017-Sep-17 22:00N 36°20' W 008°33'2712.7
2017-Sep-17 19:52N 36°27' W 009°06'513.2
2017-Sep-17 19:30N 36°28' W 009°12'712.7
2017-Sep-17 19:00N 36°30' W 009°20'613.1
2017-Sep-17 18:30N 36°34' W 009°25'2912.7
2017-Sep-17 16:15N 36°59' W 009°42'2613.3
2017-Sep-17 14:17N 37°25' W 009°50'413.7
2017-Sep-17 14:00N 37°29' W 009°51'1313.1
2017-Sep-17 13:02N 37°41' W 009°55'012.5
2017-Sep-17 13:00N 37°41' W 009°55'712.4
2017-Sep-17 12:26N 37°48' W 009°57'612.4
2017-Sep-17 11:59N 37°54' W 009°58'612.7
2017-Sep-17 11:31N 37°60' W 009°60'712.8
2017-Sep-17 10:59N 38°06' W 010°02'612.9
2017-Sep-17 10:31N 38°12' W 010°03'612.7
2017-Sep-17 10:00N 38°18' W 010°05'613.0
2017-Sep-17 09:31N 38°25' W 010°07'713.3
2017-Sep-17 09:00N 38°31' W 010°09'713.5
2017-Sep-17 08:30N 38°38' W 010°11'714.0
2017-Sep-17 08:00N 38°45' W 010°12'714.7
2017-Sep-17 07:30N 38°52' W 010°12'714.6
2017-Sep-17 07:00N 38°59' W 010°12'714.3
2017-Sep-17 06:30N 39°06' W 010°12'713.2
2017-Sep-17 06:00N 39°13' W 010°12'713.2
2017-Sep-17 05:30N 39°20' W 010°12'  
2017-Sep-14 18:42N 49°37' W 003°57'211.9
2017-Sep-14 18:30N 49°38' W 003°54'611.9
2017-Sep-14 18:00N 49°41' W 003°46'611.9
2017-Sep-14 17:30N 49°44' W 003°38'611.7
2017-Sep-14 17:00N 49°47' W 003°30'611.2
2017-Sep-14 16:30N 49°50' W 003°23'511.0
2017-Sep-14 16:00N 49°52' W 003°15'610.6
2017-Sep-14 15:26N 49°55' W 003°07'410.2
2017-Sep-14 15:00N 49°58' W 003°01'5 9.7
2017-Sep-14 14:30N 49°59' W 002°54'5 9.5
2017-Sep-14 14:00N 50°00' W 002°47'  

Dump ship's entire track history